sensor_id;sensor_type;location;lat;lon;timestamp;pressure;altitude;pressure_sealevel;temperature;humidity
7052;BME280;3567;52.444;13.556;2023-02-18T00:01:37;101112.22;;;7.10;84.62
7052;BME280;3567;52.444;13.556;2023-02-18T00:04:03;101120.22;;;7.10;85.88
7052;BME280;3567;52.444;13.556;2023-02-18T00:06:31;101106.25;;;7.08;85.63
7052;BME280;3567;52.444;13.556;2023-02-18T00:08:56;101121.63;;;7.06;86.08
7052;BME280;3567;52.444;13.556;2023-02-18T00:11:24;101122.00;;;7.03;86.18
7052;BME280;3567;52.444;13.556;2023-02-18T00:13:51;101125.53;;;7.03;86.36
7052;BME280;3567;52.444;13.556;2023-02-18T00:16:17;101114.44;;;7.00;86.45
7052;BME280;3567;52.444;13.556;2023-02-18T00:18:42;101116.47;;;6.98;86.48
7052;BME280;3567;52.444;13.556;2023-02-18T00:21:08;101123.44;;;6.99;86.26
7052;BME280;3567;52.444;13.556;2023-02-18T00:23:33;101123.44;;;6.99;86.59
7052;BME280;3567;52.444;13.556;2023-02-18T00:26:01;101124.63;;;6.96;86.44
7052;BME280;3567;52.444;13.556;2023-02-18T00:28:26;101118.69;;;6.94;87.38
7052;BME280;3567;52.444;13.556;2023-02-18T00:30:52;101127.06;;;6.91;86.38
7052;BME280;3567;52.444;13.556;2023-02-18T00:33:17;101139.34;;;6.92;87.41
7052;BME280;3567;52.444;13.556;2023-02-18T00:35:42;101128.69;;;6.92;87.50
7052;BME280;3567;52.444;13.556;2023-02-18T00:38:08;101125.41;;;6.90;87.81
7052;BME280;3567;52.444;13.556;2023-02-18T00:40:36;101134.44;;;6.89;87.70
7052;BME280;3567;52.444;13.556;2023-02-18T00:43:02;101139.97;;;6.88;87.50
7052;BME280;3567;52.444;13.556;2023-02-18T00:45:27;101157.53;;;6.82;87.38
7052;BME280;3567;52.444;13.556;2023-02-18T00:47:53;101133.94;;;6.79;87.97
7052;BME280;3567;52.444;13.556;2023-02-18T00:50:18;101146.81;;;6.75;87.89
7052;BME280;3567;52.444;13.556;2023-02-18T00:52:43;101141.06;;;6.72;88.28
7052;BME280;3567;52.444;13.556;2023-02-18T00:55:09;101133.47;;;6.69;87.63
7052;BME280;3567;52.444;13.556;2023-02-18T00:57:34;101152.25;;;6.61;88.58
7052;BME280;3567;52.444;13.556;2023-02-18T00:59:59;101147.03;;;6.52;88.96
7052;BME280;3567;52.444;13.556;2023-02-18T01:02:25;101160.16;;;6.54;88.85
7052;BME280;3567;52.444;13.556;2023-02-18T01:04:50;101144.75;;;6.49;89.00
7052;BME280;3567;52.444;13.556;2023-02-18T01:07:15;101141.03;;;6.44;89.13
7052;BME280;3567;52.444;13.556;2023-02-18T01:09:41;101143.88;;;6.42;89.13
7052;BME280;3567;52.444;13.556;2023-02-18T01:12:06;101155.75;;;6.40;89.28
7052;BME280;3567;52.444;13.556;2023-02-18T01:14:31;101154.06;;;6.39;89.01
7052;BME280;3567;52.444;13.556;2023-02-18T01:16:57;101143.84;;;6.36;89.31
7052;BME280;3567;52.444;13.556;2023-02-18T01:19:22;101141.16;;;6.36;89.10
7052;BME280;3567;52.444;13.556;2023-02-18T01:21:48;101141.53;;;6.33;89.89
7052;BME280;3567;52.444;13.556;2023-02-18T01:24:13;101136.88;;;6.35;88.68
7052;BME280;3567;52.444;13.556;2023-02-18T01:26:39;101136.88;;;6.35;88.92
7052;BME280;3567;52.444;13.556;2023-02-18T01:29:04;101148.69;;;6.32;89.16
7052;BME280;3567;52.444;13.556;2023-02-18T01:31:29;101130.47;;;6.29;88.76
7052;BME280;3567;52.444;13.556;2023-02-18T01:33:55;101146.25;;;6.30;89.44
7052;BME280;3567;52.444;13.556;2023-02-18T01:36:20;101137.22;;;6.32;88.96
7052;BME280;3567;52.444;13.556;2023-02-18T01:38:45;101137.22;;;6.32;89.04
7052;BME280;3567;52.444;13.556;2023-02-18T01:41:11;101150.75;;;6.30;88.97
7052;BME280;3567;52.444;13.556;2023-02-18T01:43:37;101135.97;;;6.27;89.13
7052;BME280;3567;52.444;13.556;2023-02-18T01:48:57;101129.81;;;6.27;89.34
7052;BME280;3567;52.444;13.556;2023-02-18T01:51:27;101134.31;;;6.26;89.63
7052;BME280;3567;52.444;13.556;2023-02-18T01:56:28;101151.75;;;6.29;89.65
7052;BME280;3567;52.444;13.556;2023-02-18T01:58:56;101155.41;;;6.28;89.58
7052;BME280;3567;52.444;13.556;2023-02-18T02:01:24;101160.09;;;6.26;89.75
7052;BME280;3567;52.444;13.556;2023-02-18T02:03:50;101141.28;;;6.27;89.83
7052;BME280;3567;52.444;13.556;2023-02-18T02:06:18;101155.25;;;6.29;89.47
7052;BME280;3567;52.444;13.556;2023-02-18T02:08:45;101148.28;;;6.28;89.38
7052;BME280;3567;52.444;13.556;2023-02-18T02:17:21;101140.59;;;6.19;89.98
7052;BME280;3567;52.444;13.556;2023-02-18T02:29:00;101151.41;;;6.17;90.06
7052;BME280;3567;52.444;13.556;2023-02-18T02:31:53;101142.81;;;6.15;89.94
7052;BME280;3567;52.444;13.556;2023-02-18T02:45:17;101163.22;;;6.08;90.05
7052;BME280;3567;52.444;13.556;2023-02-18T02:47:54;101165.22;;;6.06;90.37
7052;BME280;3567;52.444;13.556;2023-02-18T02:53:21;101167.88;;;6.06;90.31
7052;BME280;3567;52.444;13.556;2023-02-18T02:55:47;101172.56;;;6.04;89.87
7052;BME280;3567;52.444;13.556;2023-02-18T02:58:15;101168.06;;;6.04;90.36
7052;BME280;3567;52.444;13.556;2023-02-18T03:01:27;101162.94;;;6.03;90.13
7052;BME280;3567;52.444;13.556;2023-02-18T03:03:38;101176.25;;;6.03;90.20
7052;BME280;3567;52.444;13.556;2023-02-18T03:06:24;101171.75;;;6.03;89.94
7052;BME280;3567;52.444;13.556;2023-02-18T03:11:20;101165.78;;;6.01;89.77
7052;BME280;3567;52.444;13.556;2023-02-18T03:16:46;101162.69;;;5.98;89.69
7052;BME280;3567;52.444;13.556;2023-02-18T03:19:21;101159.38;;;5.96;89.78
7052;BME280;3567;52.444;13.556;2023-02-18T03:22:11;101156.09;;;5.94;89.68
7052;BME280;3567;52.444;13.556;2023-02-18T03:24:43;101162.63;;;5.91;89.89
7052;BME280;3567;52.444;13.556;2023-02-18T03:27:16;101165.41;;;5.90;89.79
7052;BME280;3567;52.444;13.556;2023-02-18T03:29:45;101159.75;;;5.93;89.95
7052;BME280;3567;52.444;13.556;2023-02-18T03:32:15;101165.28;;;5.91;89.40
7052;BME280;3567;52.444;13.556;2023-02-18T03:34:46;101160.03;;;5.98;89.39
7052;BME280;3567;52.444;13.556;2023-02-18T03:37:14;101167.00;;;5.99;89.03
7052;BME280;3567;52.444;13.556;2023-02-18T03:39:44;101163.50;;;5.98;88.99
7052;BME280;3567;52.444;13.556;2023-02-18T03:42:10;101162.28;;;6.01;88.44
7052;BME280;3567;52.444;13.556;2023-02-18T03:44:36;101168.88;;;6.05;88.62
7052;BME280;3567;52.444;13.556;2023-02-18T03:47:01;101168.53;;;6.08;88.35
7052;BME280;3567;52.444;13.556;2023-02-18T03:49:27;101164.84;;;6.09;87.44
7052;BME280;3567;52.444;13.556;2023-02-18T03:51:52;101154.47;;;6.14;87.41
7052;BME280;3567;52.444;13.556;2023-02-18T03:54:18;101166.13;;;6.13;87.32
7052;BME280;3567;52.444;13.556;2023-02-18T03:56:44;101161.78;;;6.12;87.41
7052;BME280;3567;52.444;13.556;2023-02-18T03:59:11;101160.34;;;6.10;87.55
7052;BME280;3567;52.444;13.556;2023-02-18T04:01:36;101149.25;;;6.06;87.15
7052;BME280;3567;52.444;13.556;2023-02-18T04:04:02;101161.09;;;6.03;87.72
7052;BME280;3567;52.444;13.556;2023-02-18T04:06:28;101169.28;;;6.02;87.46
7052;BME280;3567;52.444;13.556;2023-02-18T04:08:54;101159.00;;;5.99;87.22
7052;BME280;3567;52.444;13.556;2023-02-18T04:11:19;101168.81;;;5.98;86.99
7052;BME280;3567;52.444;13.556;2023-02-18T04:13:44;101171.03;;;5.95;86.66
7052;BME280;3567;52.444;13.556;2023-02-18T04:16:10;101169.19;;;5.95;86.50
7052;BME280;3567;52.444;13.556;2023-02-18T04:18:35;101175.31;;;5.96;86.26
7052;BME280;3567;52.444;13.556;2023-02-18T04:21:00;101172.03;;;5.94;87.35
7052;BME280;3567;52.444;13.556;2023-02-18T04:23:26;101185.66;;;5.91;87.18
7052;BME280;3567;52.444;13.556;2023-02-18T04:25:51;101180.94;;;5.86;87.09
7052;BME280;3567;52.444;13.556;2023-02-18T04:28:17;101185.41;;;5.86;87.23
7052;BME280;3567;52.444;13.556;2023-02-18T04:30:43;101187.44;;;5.84;87.36
7052;BME280;3567;52.444;13.556;2023-02-18T04:33:09;101177.00;;;5.82;87.60
7052;BME280;3567;52.444;13.556;2023-02-18T04:35:34;101189.81;;;5.78;87.48
7052;BME280;3567;52.444;13.556;2023-02-18T04:38:01;101186.53;;;5.76;87.41
7052;BME280;3567;52.444;13.556;2023-02-18T04:40:26;101179.75;;;5.74;88.01
7052;BME280;3567;52.444;13.556;2023-02-18T04:42:56;101190.22;;;5.75;86.97
7052;BME280;3567;52.444;13.556;2023-02-18T04:45:21;101185.72;;;5.76;87.49
7052;BME280;3567;52.444;13.556;2023-02-18T04:47:47;101186.91;;;5.73;87.06
7052;BME280;3567;52.444;13.556;2023-02-18T04:50:12;101185.72;;;5.76;87.19
7052;BME280;3567;52.444;13.556;2023-02-18T04:52:37;101188.53;;;5.74;87.30
7052;BME280;3567;52.444;13.556;2023-02-18T04:55:03;101192.03;;;5.75;87.71
7052;BME280;3567;52.444;13.556;2023-02-18T04:57:28;101189.75;;;5.72;87.36
7052;BME280;3567;52.444;13.556;2023-02-18T04:59:53;101185.59;;;5.69;87.40
7052;BME280;3567;52.444;13.556;2023-02-18T05:02:19;101184.34;;;5.65;87.95
7052;BME280;3567;52.444;13.556;2023-02-18T05:04:44;101196.16;;;5.63;87.91
7052;BME280;3567;52.444;13.556;2023-02-18T05:07:10;101191.03;;;5.61;88.49
7052;BME280;3567;52.444;13.556;2023-02-18T05:09:35;101190.38;;;5.59;88.53
7052;BME280;3567;52.444;13.556;2023-02-18T05:12:00;101186.09;;;5.58;88.51
7052;BME280;3567;52.444;13.556;2023-02-18T05:14:26;101193.22;;;5.58;88.78
7052;BME280;3567;52.444;13.556;2023-02-18T05:16:51;101187.09;;;5.57;88.98
7052;BME280;3567;52.444;13.556;2023-02-18T05:19:16;101187.72;;;5.59;88.81
7052;BME280;3567;52.444;13.556;2023-02-18T05:21:42;101190.03;;;5.62;88.43
7052;BME280;3567;52.444;13.556;2023-02-18T05:24:08;101184.34;;;5.65;88.73
7052;BME280;3567;52.444;13.556;2023-02-18T05:26:34;101189.09;;;5.70;88.52
7052;BME280;3567;52.444;13.556;2023-02-18T05:28:59;101184.91;;;5.75;88.07
7052;BME280;3567;52.444;13.556;2023-02-18T05:31:24;101177.19;;;5.81;88.45
7052;BME280;3567;52.444;13.556;2023-02-18T05:33:50;101175.16;;;5.83;87.85
7052;BME280;3567;52.444;13.556;2023-02-18T05:36:15;101173.94;;;5.85;87.70
7052;BME280;3567;52.444;13.556;2023-02-18T05:38:41;101174.59;;;5.87;88.05
7052;BME280;3567;52.444;13.556;2023-02-18T05:41:06;101171.56;;;5.90;87.83
7052;BME280;3567;52.444;13.556;2023-02-18T05:43:32;101171.22;;;5.93;87.71
7052;BME280;3567;52.444;13.556;2023-02-18T05:46:17;101171.69;;;5.97;87.26
7052;BME280;3567;52.444;13.556;2023-02-18T05:48:42;101167.81;;;5.99;86.98
7052;BME280;3567;52.444;13.556;2023-02-18T05:51:07;101158.66;;;6.02;87.19
7052;BME280;3567;52.444;13.556;2023-02-18T05:53:33;101159.88;;;6.06;86.81
7052;BME280;3567;52.444;13.556;2023-02-18T05:55:58;101164.84;;;6.09;86.37
7052;BME280;3567;52.444;13.556;2023-02-18T05:58:23;101162.00;;;6.11;86.78
7052;BME280;3567;52.444;13.556;2023-02-18T06:00:49;101159.78;;;6.14;85.84
7052;BME280;3567;52.444;13.556;2023-02-18T06:03:14;101159.59;;;6.16;86.13
7052;BME280;3567;52.444;13.556;2023-02-18T06:05:39;101162.06;;;6.17;86.19
7052;BME280;3567;52.444;13.556;2023-02-18T06:08:05;101169.03;;;6.18;86.14
7052;BME280;3567;52.444;13.556;2023-02-18T06:10:30;101169.47;;;6.22;85.90
7052;BME280;3567;52.444;13.556;2023-02-18T06:12:55;101166.66;;;6.23;85.19
7052;BME280;3567;52.444;13.556;2023-02-18T06:15:21;101173.22;;;6.27;85.28
7052;BME280;3567;52.444;13.556;2023-02-18T06:17:46;101165.88;;;6.29;85.43
7052;BME280;3567;52.444;13.556;2023-02-18T06:20:11;101170.19;;;6.30;85.46
7052;BME280;3567;52.444;13.556;2023-02-18T06:22:37;101170.19;;;6.30;85.73
7052;BME280;3567;52.444;13.556;2023-02-18T06:25:02;101167.53;;;6.30;85.86
7052;BME280;3567;52.444;13.556;2023-02-18T06:27:27;101170.81;;;6.33;85.75
7052;BME280;3567;52.444;13.556;2023-02-18T06:29:53;101166.31;;;6.33;85.70
7052;BME280;3567;52.444;13.556;2023-02-18T06:32:18;101164.47;;;6.34;85.95
7052;BME280;3567;52.444;13.556;2023-02-18T06:34:43;101162.66;;;6.34;85.53
7052;BME280;3567;52.444;13.556;2023-02-18T06:37:09;101150.78;;;6.37;85.31
7052;BME280;3567;52.444;13.556;2023-02-18T06:39:34;101163.72;;;6.40;85.76
7052;BME280;3567;52.444;13.556;2023-02-18T06:41:59;101162.72;;;6.41;85.89
7052;BME280;3567;52.444;13.556;2023-02-18T06:44:25;101149.19;;;6.42;85.94
7052;BME280;3567;52.444;13.556;2023-02-18T06:46:50;101158.66;;;6.45;85.85
7052;BME280;3567;52.444;13.556;2023-02-18T06:49:15;101157.44;;;6.47;86.23
7052;BME280;3567;52.444;13.556;2023-02-18T06:51:41;101159.09;;;6.48;85.16
7052;BME280;3567;52.444;13.556;2023-02-18T06:54:06;101150.72;;;6.51;85.84
7052;BME280;3567;52.444;13.556;2023-02-18T06:56:31;101147.66;;;6.54;85.67
7052;BME280;3567;52.444;13.556;2023-02-18T06:58:57;101139.69;;;6.54;85.31
7052;BME280;3567;52.444;13.556;2023-02-18T07:01:22;101138.69;;;6.55;85.41
7052;BME280;3567;52.444;13.556;2023-02-18T07:03:48;101152.00;;;6.55;85.31
7052;BME280;3567;52.444;13.556;2023-02-18T07:06:13;101153.81;;;6.55;85.66
7052;BME280;3567;52.444;13.556;2023-02-18T07:08:38;101146.69;;;6.55;85.94
7052;BME280;3567;52.444;13.556;2023-02-18T07:11:04;101149.75;;;6.59;85.70
7052;BME280;3567;52.444;13.556;2023-02-18T07:13:29;101137.09;;;6.61;85.57
7052;BME280;3567;52.444;13.556;2023-02-18T07:15:54;101137.72;;;6.63;85.42
7052;BME280;3567;52.444;13.556;2023-02-18T07:18:20;101133.66;;;6.67;85.23
7052;BME280;3567;52.444;13.556;2023-02-18T07:20:45;101133.25;;;6.70;85.35
7052;BME280;3567;52.444;13.556;2023-02-18T07:23:10;101134.53;;;6.74;84.74
7052;BME280;3567;52.444;13.556;2023-02-18T07:25:36;101138.81;;;6.75;84.10
7052;BME280;3567;52.444;13.556;2023-02-18T07:28:01;101138.44;;;6.78;84.81
7052;BME280;3567;52.444;13.556;2023-02-18T07:30:27;101136.03;;;6.83;84.76
7052;BME280;3567;52.444;13.556;2023-02-18T07:32:52;101118.81;;;6.86;85.03
7052;BME280;3567;52.444;13.556;2023-02-18T07:35:17;101119.22;;;6.83;85.37
7052;BME280;3567;52.444;13.556;2023-02-18T07:37:52;101133.38;;;6.83;85.38
7052;BME280;3567;52.444;13.556;2023-02-18T07:40:19;101127.84;;;6.85;85.98
7052;BME280;3567;52.444;13.556;2023-02-18T07:42:45;101134.63;;;6.88;85.53
7052;BME280;3567;52.444;13.556;2023-02-18T07:45:11;101128.91;;;6.91;86.05
7052;BME280;3567;52.444;13.556;2023-02-18T07:47:37;101123.38;;;6.92;85.83
7052;BME280;3567;52.444;13.556;2023-02-18T07:50:04;101112.72;;;6.92;86.40
7052;BME280;3567;52.444;13.556;2023-02-18T07:52:29;101110.50;;;6.96;86.49
7052;BME280;3567;52.444;13.556;2023-02-18T07:54:55;101110.28;;;6.97;86.29
7052;BME280;3567;52.444;13.556;2023-02-18T07:57:20;101099.63;;;6.97;86.88
7052;BME280;3567;52.444;13.556;2023-02-18T07:59:45;101103.16;;;6.98;87.46
7052;BME280;3567;52.444;13.556;2023-02-18T08:02:20;101108.91;;;7.01;87.20
7052;BME280;3567;52.444;13.556;2023-02-18T08:04:46;101106.22;;;7.01;87.67
7052;BME280;3567;52.444;13.556;2023-02-18T08:07:13;101110.13;;;6.99;87.74
7052;BME280;3567;52.444;13.556;2023-02-18T08:09:39;101105.81;;;6.98;88.41
7052;BME280;3567;52.444;13.556;2023-02-18T08:12:04;101110.50;;;6.96;88.86
7052;BME280;3567;52.444;13.556;2023-02-18T08:14:29;101099.03;;;6.95;89.92
7052;BME280;3567;52.444;13.556;2023-02-18T08:16:55;101096.56;;;6.94;90.18
7052;BME280;3567;52.444;13.556;2023-02-18T08:19:20;101094.72;;;6.94;90.58
7052;BME280;3567;52.444;13.556;2023-02-18T08:21:46;101083.63;;;6.91;90.42
7052;BME280;3567;52.444;13.556;2023-02-18T08:24:11;101079.94;;;6.92;90.90
7052;BME280;3567;52.444;13.556;2023-02-18T08:26:37;101077.69;;;6.89;90.09
7052;BME280;3567;52.444;13.556;2023-02-18T08:29:02;101068.44;;;6.85;90.64
7052;BME280;3567;52.444;13.556;2023-02-18T08:31:29;101059.63;;;6.84;90.59
7052;BME280;3567;52.444;13.556;2023-02-18T08:33:56;101071.06;;;6.78;91.91
7052;BME280;3567;52.444;13.556;2023-02-18T08:36:23;101075.34;;;6.72;92.49
7052;BME280;3567;52.444;13.556;2023-02-18T08:38:48;101067.09;;;6.67;93.60
7052;BME280;3567;52.444;13.556;2023-02-18T08:41:14;101060.91;;;6.60;93.84
7052;BME280;3567;52.444;13.556;2023-02-18T08:43:40;101060.66;;;6.55;95.05
7052;BME280;3567;52.444;13.556;2023-02-18T08:46:05;101051.81;;;6.48;96.34
7052;BME280;3567;52.444;13.556;2023-02-18T08:48:31;101062.88;;;6.45;97.82
7052;BME280;3567;52.444;13.556;2023-02-18T08:50:56;101052.59;;;6.42;98.07
7052;BME280;3567;52.444;13.556;2023-02-18T08:53:22;101048.88;;;6.36;100.00
7052;BME280;3567;52.444;13.556;2023-02-18T08:55:47;101041.47;;;6.32;99.69
7052;BME280;3567;52.444;13.556;2023-02-18T08:58:12;101039.38;;;6.27;100.00
7052;BME280;3567;52.444;13.556;2023-02-18T09:00:39;101047.31;;;6.20;100.00
7052;BME280;3567;52.444;13.556;2023-02-18T09:03:05;101040.72;;;6.16;100.00
7052;BME280;3567;52.444;13.556;2023-02-18T09:05:31;101037.44;;;6.14;100.00
7052;BME280;3567;52.444;13.556;2023-02-18T09:07:56;101037.44;;;6.14;100.00
7052;BME280;3567;52.444;13.556;2023-02-18T09:10:22;101035.78;;;6.13;100.00
7052;BME280;3567;52.444;13.556;2023-02-18T09:12:48;101036.78;;;6.12;100.00
7052;BME280;3567;52.444;13.556;2023-02-18T09:15:13;101029.81;;;6.11;100.00
7052;BME280;3567;52.444;13.556;2023-02-18T09:17:39;101005.28;;;6.09;100.00
7052;BME280;3567;52.444;13.556;2023-02-18T09:20:05;101014.28;;;6.08;100.00
7052;BME280;3567;52.444;13.556;2023-02-18T09:22:30;101000.31;;;6.06;100.00
7052;BME280;3567;52.444;13.556;2023-02-18T09:24:57;101007.69;;;6.04;100.00
7052;BME280;3567;52.444;13.556;2023-02-18T09:27:23;100987.44;;;6.03;100.00
7052;BME280;3567;52.444;13.556;2023-02-18T09:29:48;100986.78;;;6.01;100.00
7052;BME280;3567;52.444;13.556;2023-02-18T09:32:15;100990.66;;;5.98;100.00
7052;BME280;3567;52.444;13.556;2023-02-18T09:34:42;100988.78;;;5.92;100.00
7052;BME280;3567;52.444;13.556;2023-02-18T09:37:08;100981.81;;;5.91;100.00
7052;BME280;3567;52.444;13.556;2023-02-18T09:39:33;100979.31;;;5.90;100.00
7052;BME280;3567;52.444;13.556;2023-02-18T09:42:01;100969.22;;;5.85;100.00
7052;BME280;3567;52.444;13.556;2023-02-18T09:44:37;100966.78;;;5.84;100.00
7052;BME280;3567;52.444;13.556;2023-02-18T09:47:27;100961.91;;;5.87;100.00
7052;BME280;3567;52.444;13.556;2023-02-18T09:49:57;100942.47;;;5.87;100.00
7052;BME280;3567;52.444;13.556;2023-02-18T09:52:25;100933.47;;;5.88;100.00
7052;BME280;3567;52.444;13.556;2023-02-18T09:54:53;100936.34;;;5.86;100.00
7052;BME280;3567;52.444;13.556;2023-02-18T09:57:32;100931.19;;;5.85;100.00
7052;BME280;3567;52.444;13.556;2023-02-18T10:00:04;100913.00;;;5.82;100.00
7052;BME280;3567;52.444;13.556;2023-02-18T10:02:33;100902.34;;;5.82;100.00
7052;BME280;3567;52.444;13.556;2023-02-18T10:04:59;100900.72;;;5.81;100.00
7052;BME280;3567;52.444;13.556;2023-02-18T10:07:33;100891.91;;;5.80;100.00
7052;BME280;3567;52.444;13.556;2023-02-18T10:10:38;100885.34;;;5.76;100.00
7052;BME280;3567;52.444;13.556;2023-02-18T10:12:57;100891.91;;;5.80;100.00
7052;BME280;3567;52.444;13.556;2023-02-18T10:15:27;100889.25;;;5.80;100.00
7052;BME280;3567;52.444;13.556;2023-02-18T10:17:55;100886.41;;;5.82;100.00
7052;BME280;3567;52.444;13.556;2023-02-18T10:20:23;100889.47;;;5.85;100.00
7052;BME280;3567;52.444;13.556;2023-02-18T10:22:51;100887.03;;;5.84;100.00
7052;BME280;3567;52.444;13.556;2023-02-18T10:25:19;100873.16;;;5.88;100.00
7052;BME280;3567;52.444;13.556;2023-02-18T10:27:47;100863.94;;;5.91;100.00
7052;BME280;3567;52.444;13.556;2023-02-18T10:32:42;100839.69;;;5.94;100.00
7052;BME280;3567;52.444;13.556;2023-02-18T10:35:23;100828.84;;;5.95;100.00
7052;BME280;3567;52.444;13.556;2023-02-18T10:50:38;100772.50;;;6.13;100.00
7052;BME280;3567;52.444;13.556;2023-02-18T10:55:54;100751.81;;;6.15;100.00
7052;BME280;3567;52.444;13.556;2023-02-18T10:58:36;100737.28;;;6.11;100.00
7052;BME280;3567;52.444;13.556;2023-02-18T11:01:13;100742.00;;;6.09;100.00
7052;BME280;3567;52.444;13.556;2023-02-18T11:06:31;100724.41;;;6.08;100.00
7052;BME280;3567;52.444;13.556;2023-02-18T11:08:57;100718.50;;;6.13;100.00
7052;BME280;3567;52.444;13.556;2023-02-18T11:11:29;100700.88;;;6.12;100.00
7052;BME280;3567;52.444;13.556;2023-02-18T11:13:58;100698.41;;;6.10;100.00
7052;BME280;3567;52.444;13.556;2023-02-18T11:16:39;100681.25;;;6.13;100.00
7052;BME280;3567;52.444;13.556;2023-02-18T11:19:32;100666.94;;;6.20;100.00
7052;BME280;3567;52.444;13.556;2023-02-18T11:22:14;100662.22;;;6.22;100.00
7052;BME280;3567;52.444;13.556;2023-02-18T11:24:40;100652.22;;;6.24;100.00
7052;BME280;3567;52.444;13.556;2023-02-18T11:27:19;100644.84;;;6.26;100.00
7052;BME280;3567;52.444;13.556;2023-02-18T11:29:52;100639.53;;;6.33;100.00
7052;BME280;3567;52.444;13.556;2023-02-18T11:32:19;100630.72;;;6.33;100.00
7052;BME280;3567;52.444;13.556;2023-02-18T11:34:45;100628.06;;;6.33;100.00
7052;BME280;3567;52.444;13.556;2023-02-18T11:37:17;100626.44;;;6.32;100.00
7052;BME280;3567;52.444;13.556;2023-02-18T11:39:45;100614.56;;;6.27;100.00
7052;BME280;3567;52.444;13.556;2023-02-18T11:42:14;100611.69;;;6.22;100.00
7052;BME280;3567;52.444;13.556;2023-02-18T11:44:47;100610.06;;;6.21;100.00
7052;BME280;3567;52.444;13.556;2023-02-18T11:49:39;100600.66;;;6.19;100.00
7052;BME280;3567;52.444;13.556;2023-02-18T11:52:22;100596.34;;;6.18;100.00
7052;BME280;3567;52.444;13.556;2023-02-18T11:57:24;100571.59;;;6.24;100.00
7052;BME280;3567;52.444;13.556;2023-02-18T11:59:51;100572.63;;;6.29;100.00
7052;BME280;3567;52.444;13.556;2023-02-18T12:02:38;100555.22;;;6.34;100.00
7052;BME280;3567;52.444;13.556;2023-02-18T12:05:19;100545.81;;;6.38;100.00
7052;BME280;3567;52.444;13.556;2023-02-18T12:07:51;100540.31;;;6.39;100.00
7052;BME280;3567;52.444;13.556;2023-02-18T12:10:33;100527.38;;;6.43;100.00
7052;BME280;3567;52.444;13.556;2023-02-18T12:13:33;100529.84;;;6.51;100.00
7052;BME280;3567;52.444;13.556;2023-02-18T12:19:00;100503.81;;;6.66;100.00
7052;BME280;3567;52.444;13.556;2023-02-18T12:21:44;100504.41;;;6.75;100.00
7052;BME280;3567;52.444;13.556;2023-02-18T13:05:56;100432.25;;;8.71;100.00
7052;BME280;3567;52.444;13.556;2023-02-18T13:11:26;100423.63;;;8.87;100.00
7052;BME280;3567;52.444;13.556;2023-02-18T13:14:13;100419.16;;;9.00;100.00
7052;BME280;3567;52.444;13.556;2023-02-18T13:16:42;100420.47;;;9.09;100.00
7052;BME280;3567;52.444;13.556;2023-02-18T13:19:24;100411.78;;;9.13;100.00
7052;BME280;3567;52.444;13.556;2023-02-18T13:21:54;100404.72;;;9.19;100.00
7052;BME280;3567;52.444;13.556;2023-02-18T13:27:00;100397.56;;;9.31;100.00
7052;BME280;3567;52.444;13.556;2023-02-18T13:29:35;100388.63;;;9.37;100.00
7052;BME280;3567;52.444;13.556;2023-02-18T13:35:20;100401.91;;;9.44;100.00
7052;BME280;3567;52.444;13.556;2023-02-18T13:40:21;100383.06;;;9.51;100.00
7052;BME280;3567;52.444;13.556;2023-02-18T13:42:53;100400.50;;;9.53;100.00
7052;BME280;3567;52.444;13.556;2023-02-18T13:45:38;100406.69;;;9.54;100.00
7052;BME280;3567;52.444;13.556;2023-02-18T13:48:21;100403.78;;;9.55;100.00
7052;BME280;3567;52.444;13.556;2023-02-18T13:50:50;100401.69;;;9.57;100.00
7052;BME280;3567;52.444;13.556;2023-02-18T13:53:21;100391.34;;;9.61;100.00
7052;BME280;3567;52.444;13.556;2023-02-18T13:58:35;100385.53;;;9.64;100.00
7052;BME280;3567;52.444;13.556;2023-02-18T14:01:12;100395.19;;;9.65;100.00
7052;BME280;3567;52.444;13.556;2023-02-18T14:06:33;100394.03;;;9.61;100.00
7052;BME280;3567;52.444;13.556;2023-02-18T14:11:57;100384.38;;;9.60;100.00
7052;BME280;3567;52.444;13.556;2023-02-18T14:14:39;100391.59;;;9.59;100.00
7052;BME280;3567;52.444;13.556;2023-02-18T14:19:52;100395.53;;;9.57;100.00
7052;BME280;3567;52.444;13.556;2023-02-18T14:22:32;100386.94;;;9.55;100.00
7052;BME280;3567;52.444;13.556;2023-02-18T14:27:25;100382.84;;;9.52;100.00
7052;BME280;3567;52.444;13.556;2023-02-18T14:29:51;100387.38;;;9.52;100.00
7052;BME280;3567;52.444;13.556;2023-02-18T14:32:18;100394.00;;;9.49;100.00
7052;BME280;3567;52.444;13.556;2023-02-18T14:37:45;100385.75;;;9.51;100.00
7052;BME280;3567;52.444;13.556;2023-02-18T14:40:20;100384.13;;;9.50;100.00
7052;BME280;3567;52.444;13.556;2023-02-18T14:50:34;100389.81;;;9.53;100.00
7052;BME280;3567;52.444;13.556;2023-02-18T14:53:07;100397.25;;;9.51;100.00
7052;BME280;3567;52.444;13.556;2023-02-18T14:55:40;100394.81;;;9.50;100.00
7052;BME280;3567;52.444;13.556;2023-02-18T15:00:52;100401.66;;;9.45;100.00
7052;BME280;3567;52.444;13.556;2023-02-18T15:03:20;100400.63;;;9.47;100.00
7052;BME280;3567;52.444;13.556;2023-02-18T15:05:49;100400.63;;;9.47;100.00
7052;BME280;3567;52.444;13.556;2023-02-18T15:08:22;100409.69;;;9.45;100.00
7052;BME280;3567;52.444;13.556;2023-02-18T15:10:52;100412.34;;;9.45;100.00
7052;BME280;3567;52.444;13.556;2023-02-18T15:13:31;100412.59;;;9.44;100.00
7052;BME280;3567;52.444;13.556;2023-02-18T15:16:01;100413.03;;;9.41;100.00
7052;BME280;3567;52.444;13.556;2023-02-18T15:18:41;100417.00;;;9.38;100.00
7052;BME280;3567;52.444;13.556;2023-02-18T15:21:20;100410.38;;;9.41;100.00
7052;BME280;3567;52.444;13.556;2023-02-18T15:23:46;100413.84;;;9.41;100.00
7052;BME280;3567;52.444;13.556;2023-02-18T15:26:15;100412.59;;;9.44;100.00
7052;BME280;3567;52.444;13.556;2023-02-18T15:28:53;100417.13;;;9.43;100.00
7052;BME280;3567;52.444;13.556;2023-02-18T15:31:25;100404.78;;;9.42;100.00
7052;BME280;3567;52.444;13.556;2023-02-18T15:33:51;100408.75;;;9.40;100.00
7052;BME280;3567;52.444;13.556;2023-02-18T15:36:16;100432.94;;;9.45;100.00
7052;BME280;3567;52.444;13.556;2023-02-18T15:38:42;100428.97;;;9.48;100.00
7052;BME280;3567;52.444;13.556;2023-02-18T15:41:19;100432.69;;;9.47;100.00
7052;BME280;3567;52.444;13.556;2023-02-18T15:43:59;100442.34;;;9.48;100.00